createdAt,value
2024-04-19T00:00:54.303Z,60.66
2024-04-19T00:03:42.218Z,60.58
2024-04-19T00:06:10.570Z,60.58
2024-04-19T00:08:38.222Z,60.73
2024-04-19T00:11:05.950Z,60.81
2024-04-19T00:13:33.779Z,60.80
2024-04-19T00:16:01.468Z,60.98
2024-04-19T00:18:29.346Z,61.09
2024-04-19T00:20:57.368Z,60.94
2024-04-19T00:23:25.431Z,60.84
2024-04-19T00:25:54.956Z,60.67
2024-04-19T00:28:40.825Z,60.59
2024-04-19T00:31:09.239Z,60.49
2024-04-19T00:33:37.472Z,60.31
2024-04-19T00:36:05.495Z,60.40
2024-04-19T00:38:33.361Z,60.40
2024-04-19T00:41:01.158Z,60.26
2024-04-19T00:43:28.857Z,59.96
2024-04-19T00:45:56.947Z,59.90
2024-04-19T00:48:26.392Z,59.97
2024-04-19T00:50:59.379Z,60.14
2024-04-19T00:53:34.254Z,60.11
2024-04-19T00:56:21.124Z,59.96
2024-04-19T00:58:48.929Z,60.25
2024-04-19T01:01:17.579Z,60.32
2024-04-19T01:03:45.440Z,60.37
2024-04-19T01:06:13.086Z,60.55
2024-04-19T01:08:40.905Z,60.48
2024-04-19T01:11:28.704Z,60.46
2024-04-19T01:13:56.365Z,60.26
2024-04-19T01:16:23.976Z,60.32
2024-04-19T01:18:54.359Z,60.51
2024-04-19T01:21:23.176Z,60.60
2024-04-19T01:23:54.664Z,60.53
2024-04-19T01:26:22.647Z,60.34
2024-04-19T01:28:50.317Z,60.58
2024-04-19T01:31:18.091Z,60.58
2024-04-19T01:33:45.883Z,60.72
2024-04-19T01:36:13.546Z,60.35
2024-04-19T01:38:50.215Z,60.64
2024-04-19T01:41:17.913Z,60.63
2024-04-19T01:43:45.689Z,60.59
2024-04-19T01:46:13.326Z,60.56
2024-04-19T01:48:40.935Z,60.51
2024-04-19T01:51:08.622Z,60.68
2024-04-19T01:53:36.427Z,60.47
2024-04-19T01:56:04.322Z,60.41
2024-04-19T01:58:40.945Z,60.00
2024-04-19T02:01:09.115Z,60.08
2024-04-19T02:03:40.703Z,60.39
2024-04-19T02:06:09.501Z,60.65
2024-04-19T02:08:37.269Z,60.73
2024-04-19T02:11:05.625Z,60.57
2024-04-19T02:13:33.675Z,60.51
2024-04-19T02:16:01.583Z,60.62
2024-04-19T02:18:29.403Z,60.74
2024-04-19T02:20:59.280Z,60.64
2024-04-19T02:23:36.130Z,60.43
2024-04-19T02:26:07.633Z,61.04
2024-04-19T02:28:59.557Z,60.93
2024-04-19T02:31:27.458Z,60.83
2024-04-19T02:33:55.325Z,60.94
2024-04-19T02:36:23.239Z,61.03
2024-04-19T02:38:50.883Z,60.85
2024-04-19T02:41:18.534Z,60.69
2024-04-19T02:43:47.324Z,60.71
2024-04-19T02:46:18.225Z,60.86
2024-04-19T02:48:47.471Z,60.85
2024-04-19T02:51:15.214Z,63.80
2024-04-19T02:53:43.808Z,63.62
2024-04-19T02:56:11.705Z,62.36
2024-04-19T02:58:40.837Z,61.78
2024-04-19T03:01:08.571Z,61.33
2024-04-19T03:03:36.453Z,61.08
2024-04-19T03:06:04.846Z,61.10
2024-04-19T03:08:32.565Z,61.53
2024-04-19T03:11:06.778Z,61.32
2024-04-19T03:13:34.521Z,61.39
2024-04-19T03:16:09.614Z,61.23
2024-04-19T03:18:43.453Z,61.23
2024-04-19T03:21:11.390Z,61.54
2024-04-19T03:23:39.199Z,61.60
2024-04-19T03:26:07.083Z,61.69
2024-04-19T03:28:34.796Z,61.67
2024-04-19T03:31:02.367Z,61.68
2024-04-19T03:33:30.186Z,61.71
2024-04-19T03:35:58.281Z,61.47
2024-04-19T03:38:26.402Z,61.40
2024-04-19T03:40:55.368Z,61.14
2024-04-19T03:43:24.733Z,61.13
2024-04-19T03:45:52.492Z,61.11
2024-04-19T03:48:20.218Z,60.99
2024-04-19T03:50:48.102Z,61.10
2024-04-19T03:53:15.896Z,61.36
2024-04-19T03:55:43.516Z,61.16
2024-04-19T03:58:11.158Z,61.26
2024-04-19T04:00:42.385Z,61.22
2024-04-19T04:03:10.199Z,61.26
2024-04-19T04:05:40.619Z,61.33
2024-04-19T04:08:08.589Z,61.63
2024-04-19T04:10:36.626Z,61.67
2024-04-19T04:13:04.544Z,61.88
2024-04-19T04:15:32.913Z,62.21
2024-04-19T04:18:02.872Z,62.47
2024-04-19T04:20:30.642Z,62.65
2024-04-19T04:22:58.224Z,62.72
2024-04-19T04:25:25.833Z,63.08
2024-04-19T04:27:53.487Z,63.42
2024-04-19T04:30:21.136Z,62.89
2024-04-19T04:32:48.781Z,62.78
2024-04-19T04:35:16.607Z,62.52
2024-04-19T04:37:44.190Z,62.37
2024-04-19T04:40:11.956Z,62.48
2024-04-19T04:42:40.090Z,62.63
2024-04-19T04:45:08.058Z,62.57
2024-04-19T04:47:36.171Z,62.35
2024-04-19T04:50:04.007Z,62.64
2024-04-19T04:52:32.337Z,62.71
2024-04-19T04:55:00.040Z,62.66
2024-04-19T04:57:27.741Z,62.83
2024-04-19T04:59:55.414Z,62.79
2024-04-19T05:02:23.084Z,62.64
2024-04-19T05:04:51.961Z,62.62
2024-04-19T05:07:23.860Z,62.66
2024-04-19T05:09:52.723Z,62.54
2024-04-19T05:12:20.522Z,62.38
2024-04-19T05:14:48.169Z,62.04
2024-04-19T05:17:16.051Z,61.91
2024-04-19T05:19:43.725Z,61.89
2024-04-19T05:22:11.520Z,61.90
2024-04-19T05:24:39.200Z,61.99
2024-04-19T05:27:06.847Z,62.07
2024-04-19T05:29:34.422Z,61.73
2024-04-19T05:32:02.081Z,61.72
2024-04-19T05:34:30.236Z,61.49
2024-04-19T05:36:58.628Z,61.49
2024-04-19T05:39:26.291Z,61.59
2024-04-19T05:41:53.882Z,61.92
2024-04-19T05:44:21.531Z,61.80
2024-04-19T05:46:49.418Z,62.05
2024-04-19T05:49:17.117Z,62.03
2024-04-19T05:51:44.824Z,62.01
2024-04-19T05:54:12.587Z,62.05
2024-04-19T05:56:40.239Z,62.33
2024-04-19T05:59:08.114Z,62.07
2024-04-19T06:01:35.827Z,61.77
2024-04-19T06:04:03.647Z,61.94
2024-04-19T06:06:31.290Z,62.03
2024-04-19T06:08:59.081Z,61.52
2024-04-19T06:11:27.809Z,61.44
2024-04-19T06:13:56.011Z,60.98
2024-04-19T06:16:23.771Z,60.82
2024-04-19T06:18:51.574Z,60.81
2024-04-19T06:21:19.388Z,60.65
2024-04-19T06:23:47.038Z,60.32
2024-04-19T06:26:14.664Z,60.16
2024-04-19T06:28:43.710Z,59.93
2024-04-19T06:31:13.332Z,59.77
2024-04-19T06:33:41.518Z,59.57
2024-04-19T06:36:10.416Z,58.81
2024-04-19T06:38:40.436Z,58.17
2024-04-19T06:41:09.412Z,57.70
2024-04-19T06:43:37.092Z,57.58
2024-04-19T06:46:04.863Z,56.77
2024-04-19T06:48:32.729Z,57.37
2024-04-19T06:51:01.136Z,57.55
2024-04-19T06:53:28.868Z,57.76
2024-04-19T06:55:56.461Z,57.00
2024-04-19T06:58:24.248Z,56.10
2024-04-19T07:01:06.040Z,56.39
2024-04-19T07:03:41.382Z,55.63
2024-04-19T07:06:20.012Z,55.34
2024-04-19T07:08:54.854Z,55.22
2024-04-19T07:11:22.662Z,55.48
2024-04-19T07:13:50.958Z,55.62
2024-04-19T07:16:18.703Z,55.69
2024-04-19T07:18:47.287Z,55.67
2024-04-19T07:21:15.203Z,55.15
2024-04-19T07:23:42.995Z,55.00
2024-04-19T07:26:10.801Z,55.02
2024-04-19T07:28:38.539Z,55.01
2024-04-19T07:31:06.269Z,54.93
2024-04-19T07:33:33.955Z,54.38
2024-04-19T07:36:01.601Z,53.95
2024-04-19T07:38:29.352Z,53.98
2024-04-19T07:41:04.103Z,54.02
2024-04-19T07:43:31.886Z,53.70
2024-04-19T07:45:59.536Z,53.87
2024-04-19T07:48:28.520Z,53.60
2024-04-19T07:50:56.419Z,52.47
2024-04-19T07:53:24.052Z,52.19
2024-04-19T07:55:51.639Z,51.60
2024-04-19T07:58:23.932Z,50.52
2024-04-19T08:00:51.812Z,50.64
2024-04-19T08:03:19.530Z,50.78
2024-04-19T08:05:47.575Z,50.53
2024-04-19T08:08:15.294Z,50.20
2024-04-19T08:10:42.978Z,50.11
2024-04-19T08:13:10.616Z,50.24
2024-04-19T08:15:38.891Z,50.07
2024-04-19T08:18:06.842Z,50.50
2024-04-19T08:20:34.580Z,50.35
2024-04-19T08:23:02.396Z,50.06
2024-04-19T08:25:29.973Z,49.41
2024-04-19T08:27:57.801Z,48.86
2024-04-19T08:30:26.209Z,48.84
2024-04-19T08:32:53.852Z,48.30
2024-04-19T08:35:21.476Z,47.90
2024-04-19T08:37:49.460Z,47.89
2024-04-19T08:40:17.151Z,47.41
2024-04-19T08:42:45.444Z,46.84
2024-04-19T08:45:14.543Z,46.66
2024-04-19T08:47:43.708Z,46.31
2024-04-19T08:50:11.751Z,46.45
2024-04-19T08:52:59.480Z,46.59
2024-04-19T08:55:28.829Z,46.23
2024-04-19T08:57:56.661Z,46.04
2024-04-19T09:00:24.420Z,46.36
2024-04-19T09:02:52.885Z,46.73
2024-04-19T09:05:20.523Z,47.02
2024-04-19T09:07:48.485Z,47.18
2024-04-19T09:10:16.090Z,47.76
2024-04-19T09:12:43.751Z,48.11
2024-04-19T09:15:11.377Z,48.42
2024-04-19T09:17:39.723Z,48.52
2024-04-19T09:20:07.868Z,48.05
2024-04-19T09:22:35.593Z,47.44
2024-04-19T09:25:03.308Z,47.82
2024-04-19T09:27:31.208Z,47.34
2024-04-19T09:30:02.179Z,47.86
2024-04-19T09:32:30.847Z,49.08
2024-04-19T09:34:58.659Z,50.07
2024-04-19T09:37:27.502Z,50.72
2024-04-19T09:39:55.207Z,51.14
2024-04-19T09:42:25.911Z,50.50
2024-04-19T09:44:53.919Z,50.47
2024-04-19T09:47:22.791Z,49.20
2024-04-19T09:49:51.697Z,48.02
2024-04-19T09:52:20.914Z,45.61
2024-04-19T09:55:05.625Z,43.79
2024-04-19T09:57:35.594Z,44.14
2024-04-19T10:00:04.694Z,43.10
2024-04-19T10:02:40.243Z,43.60
2024-04-19T10:05:08.277Z,43.27
2024-04-19T10:07:37.989Z,43.64
2024-04-19T10:10:06.432Z,43.40
2024-04-19T10:12:34.773Z,41.90
2024-04-19T10:15:02.465Z,42.35
2024-04-19T10:17:30.327Z,43.40
2024-04-19T10:19:58.464Z,43.78
2024-04-19T10:22:30.109Z,43.06
2024-04-19T10:25:01.624Z,43.89
2024-04-19T10:27:30.503Z,43.68
2024-04-19T10:29:59.925Z,43.19
2024-04-19T10:32:27.588Z,41.62
2024-04-19T10:34:55.217Z,42.31
2024-04-19T10:37:22.978Z,43.23
2024-04-19T10:39:50.678Z,44.11
2024-04-19T10:42:24.999Z,45.06
2024-04-19T10:44:52.801Z,45.69
2024-04-19T10:47:21.991Z,45.64
2024-04-19T10:49:49.794Z,44.91
2024-04-19T10:52:23.613Z,44.17
2024-04-19T10:54:52.471Z,43.61
2024-04-19T10:57:20.160Z,42.43
2024-04-19T10:59:47.820Z,41.51
2024-04-19T11:02:17.249Z,40.92
2024-04-19T11:04:45.461Z,40.04
2024-04-19T11:07:13.274Z,39.25
2024-04-19T11:09:40.985Z,38.31
2024-04-19T11:12:09.962Z,37.99
2024-04-19T11:14:37.538Z,37.76
2024-04-19T11:17:05.288Z,36.56
2024-04-19T11:19:34.489Z,36.33
2024-04-19T11:22:02.527Z,33.82
2024-04-19T11:24:31.387Z,33.86
2024-04-19T11:26:59.182Z,34.37
2024-04-19T11:29:27.061Z,34.88
2024-04-19T11:31:55.258Z,34.87
2024-04-19T11:34:31.588Z,35.18
2024-04-19T11:37:05.983Z,35.30
2024-04-19T11:39:34.958Z,34.72
2024-04-19T11:42:02.927Z,34.34
2024-04-19T11:44:30.769Z,34.84
2024-04-19T11:47:08.208Z,35.19
2024-04-19T11:49:35.871Z,35.35
2024-04-19T11:52:03.749Z,35.51
2024-04-19T11:54:32.676Z,35.83
2024-04-19T11:57:00.893Z,35.45
2024-04-19T11:59:28.635Z,35.76
2024-04-19T12:01:57.078Z,35.85
2024-04-19T12:04:24.939Z,36.43
2024-04-19T12:06:52.914Z,36.94
2024-04-19T12:09:20.759Z,37.41
2024-04-19T12:12:19.742Z,37.85
2024-04-19T12:15:23.213Z,38.41
2024-04-19T12:17:27.225Z,39.71
2024-04-19T12:20:00.717Z,40.25
2024-04-19T12:22:34.190Z,40.47
2024-04-19T12:25:04.547Z,40.17
2024-04-19T12:27:33.064Z,40.37
2024-04-19T12:30:00.966Z,40.16
2024-04-19T12:32:29.162Z,40.56
2024-04-19T12:34:56.754Z,40.94
2024-04-19T12:37:24.426Z,41.39
2024-04-19T12:39:52.276Z,41.66
2024-04-19T12:42:19.975Z,41.90
2024-04-19T12:44:50.875Z,41.95
2024-04-19T12:47:18.825Z,41.87
2024-04-19T12:49:46.584Z,41.81
2024-04-19T12:52:14.323Z,41.70
2024-04-19T12:54:41.994Z,41.34
2024-04-19T12:57:09.724Z,41.03
2024-04-19T12:59:37.455Z,40.57
2024-04-19T13:02:07.237Z,40.03
2024-04-19T13:04:35.022Z,40.16
2024-04-19T13:07:02.702Z,39.57
2024-04-19T13:09:30.385Z,39.40
2024-04-19T13:11:58.271Z,39.17
2024-04-19T13:14:26.004Z,38.92
2024-04-19T13:16:53.878Z,39.10
2024-04-19T13:19:21.672Z,39.06
2024-04-19T13:21:49.856Z,38.57
2024-04-19T13:24:19.720Z,39.01
2024-04-19T13:26:47.754Z,38.39
2024-04-19T13:29:15.387Z,38.91
2024-04-19T13:31:45.910Z,38.75
2024-04-19T13:34:16.516Z,37.83
2024-04-19T13:36:44.200Z,37.56
2024-04-19T13:39:11.866Z,37.46
2024-04-19T13:41:40.444Z,37.72
2024-04-19T13:44:09.278Z,38.39
2024-04-19T13:46:37.135Z,38.35
2024-04-19T13:49:04.945Z,38.13
2024-04-19T13:51:33.094Z,38.72
2024-04-19T13:54:00.752Z,39.55
2024-04-19T13:56:31.844Z,40.64
2024-04-19T13:58:59.741Z,42.06
2024-04-19T14:01:31.728Z,42.68
2024-04-19T14:03:59.673Z,43.38
2024-04-19T14:06:28.268Z,44.33
2024-04-19T14:08:56.054Z,45.86
2024-04-19T14:11:24.856Z,47.61
2024-04-19T14:13:52.573Z,48.10
2024-04-19T14:16:24.188Z,48.44
2024-04-19T14:18:54.219Z,48.47
2024-04-19T14:21:22.500Z,48.65
2024-04-19T14:23:50.121Z,48.36
2024-04-19T14:26:19.538Z,48.56
2024-04-19T14:28:47.517Z,48.70
2024-04-19T14:31:15.090Z,49.07
2024-04-19T14:33:44.636Z,49.49
2024-04-19T14:36:12.663Z,49.53
2024-04-19T14:38:40.304Z,49.65
2024-04-19T14:41:08.229Z,49.62
2024-04-19T14:43:38.591Z,49.71
2024-04-19T14:46:08.520Z,49.68
2024-04-19T14:48:36.475Z,49.93
2024-04-19T14:51:05.163Z,49.77
2024-04-19T14:53:32.759Z,49.78
2024-04-19T14:56:01.465Z,49.67
2024-04-19T14:58:29.285Z,49.14
2024-04-19T15:00:59.002Z,49.35
2024-04-19T15:03:26.807Z,49.13
2024-04-19T15:05:57.345Z,49.77
2024-04-19T15:08:25.118Z,50.36
2024-04-19T15:10:53.651Z,51.39
2024-04-19T15:13:22.911Z,51.66
2024-04-19T15:15:50.618Z,52.01
2024-04-19T15:18:18.258Z,52.39
2024-04-19T15:20:45.918Z,53.49
2024-04-19T15:23:13.690Z,53.98
2024-04-19T15:25:43.835Z,55.26
2024-04-19T15:28:13.001Z,56.12
2024-04-19T15:30:43.869Z,56.45
2024-04-19T15:33:11.583Z,56.68
2024-04-19T15:35:39.492Z,56.77
2024-04-19T15:38:10.911Z,57.08
2024-04-19T15:40:39.791Z,57.48
2024-04-19T15:43:07.954Z,57.23
2024-04-19T15:45:35.616Z,57.08
2024-04-19T15:48:03.520Z,56.92
2024-04-19T15:50:31.511Z,56.81
2024-04-19T15:52:59.611Z,56.49
2024-04-19T15:55:40.120Z,56.54
2024-04-19T15:58:08.060Z,56.56
2024-04-19T16:00:38.584Z,55.98
2024-04-19T16:03:06.340Z,55.77
2024-04-19T16:05:38.191Z,55.86
2024-04-19T16:08:05.997Z,55.83
2024-04-19T16:10:33.654Z,55.54
2024-04-19T16:13:01.405Z,55.26
2024-04-19T16:15:29.757Z,55.03
2024-04-19T16:17:57.861Z,54.96
2024-04-19T16:20:25.570Z,54.43
2024-04-19T16:22:53.194Z,54.68
2024-04-19T16:25:21.064Z,54.70
2024-04-19T16:27:48.873Z,54.73
2024-04-19T16:30:18.197Z,55.44
2024-04-19T16:32:46.297Z,55.08
2024-04-19T16:35:14.146Z,55.12
2024-04-19T16:37:46.017Z,55.51
2024-04-19T16:40:13.656Z,55.98
2024-04-19T16:42:41.631Z,56.69
2024-04-19T16:45:09.358Z,57.35
2024-04-19T16:47:37.189Z,57.79
2024-04-19T16:50:05.801Z,59.14
2024-04-19T16:52:33.367Z,59.73
2024-04-19T16:55:01.065Z,60.24
2024-04-19T16:57:28.736Z,60.50
2024-04-19T16:59:56.435Z,60.24
2024-04-19T17:02:24.215Z,60.64
2024-04-19T17:04:52.259Z,61.02
2024-04-19T17:07:19.897Z,61.35
2024-04-19T17:09:47.663Z,61.17
2024-04-19T17:12:15.367Z,61.59
2024-04-19T17:14:43.572Z,62.10
2024-04-19T17:17:11.835Z,61.92
2024-04-19T17:19:39.533Z,61.51
2024-04-19T17:22:07.164Z,61.73
2024-04-19T17:24:34.833Z,61.79
2024-04-19T17:27:02.467Z,62.03
2024-04-19T17:29:30.061Z,62.13
2024-04-19T17:31:58.408Z,62.10
2024-04-19T17:34:26.675Z,62.20
2024-04-19T17:36:59.444Z,62.14
2024-04-19T17:39:27.178Z,62.01
2024-04-19T17:41:54.878Z,61.88
2024-04-19T17:44:22.558Z,62.06
2024-04-19T17:46:51.329Z,62.09
2024-04-19T17:49:21.688Z,62.10
2024-04-19T17:51:50.533Z,62.02
2024-04-19T17:54:19.626Z,61.90
2024-04-19T17:56:47.276Z,61.85
2024-04-19T17:59:15.990Z,61.71
2024-04-19T18:01:43.661Z,61.60
2024-04-19T18:04:11.444Z,61.51
2024-04-19T18:06:40.476Z,61.45
2024-04-19T18:09:09.517Z,61.55
2024-04-19T18:11:37.223Z,61.77
2024-04-19T18:14:04.779Z,62.07
2024-04-19T18:16:32.712Z,62.18
2024-04-19T18:19:00.481Z,62.62
2024-04-19T18:21:28.264Z,62.56
2024-04-19T18:23:57.336Z,62.82
2024-04-19T18:26:25.870Z,63.00
2024-04-19T18:28:53.765Z,63.13
2024-04-19T18:31:21.424Z,63.05
2024-04-19T18:34:00.120Z,63.18
2024-04-19T18:36:28.059Z,63.14
2024-04-19T18:38:55.606Z,63.46
2024-04-19T18:41:25.121Z,63.49
2024-04-19T18:43:52.726Z,63.33
2024-04-19T18:46:21.308Z,63.33
2024-04-19T18:48:49.080Z,63.18
2024-04-19T18:51:16.727Z,63.06
2024-04-19T18:53:47.890Z,63.07
2024-04-19T18:56:15.599Z,63.31
2024-04-19T18:58:44.590Z,63.30
2024-04-19T19:01:15.794Z,63.28
2024-04-19T19:03:47.663Z,63.31
2024-04-19T19:06:16.995Z,63.27
2024-04-19T19:08:44.667Z,63.10
2024-04-19T19:11:15.451Z,62.87
2024-04-19T19:13:43.697Z,62.85
2024-04-19T19:16:11.832Z,62.45
2024-04-19T19:18:39.846Z,62.34
2024-04-19T19:21:08.730Z,62.43
2024-04-19T19:23:36.474Z,62.50
2024-04-19T19:26:07.781Z,62.49
2024-04-19T19:28:35.394Z,62.31
2024-04-19T19:31:03.162Z,62.33
2024-04-19T19:33:33.697Z,62.18
2024-04-19T19:36:04.201Z,62.32
2024-04-19T19:38:38.035Z,62.39
2024-04-19T19:41:05.893Z,62.33
2024-04-19T19:43:37.474Z,62.41
2024-04-19T19:46:07.050Z,62.25
2024-04-19T19:48:35.303Z,62.32
2024-04-19T19:51:16.463Z,62.40
2024-04-19T19:53:45.102Z,62.34
2024-04-19T19:56:17.188Z,62.23
2024-04-19T19:58:45.142Z,62.23
2024-04-19T20:01:31.270Z,62.19
2024-04-19T20:04:33.718Z,62.16
2024-04-19T20:07:03.076Z,62.25
2024-04-19T20:09:30.728Z,62.26
2024-04-19T20:11:58.385Z,62.32
2024-04-19T20:14:26.946Z,62.25
2024-04-19T20:16:54.906Z,62.15
2024-04-19T20:19:22.703Z,62.17
2024-04-19T20:21:50.345Z,62.20
2024-04-19T20:24:17.912Z,62.28
2024-04-19T20:26:45.669Z,62.25
2024-04-19T20:29:15.582Z,62.36
2024-04-19T20:35:01.584Z,62.24
2024-04-19T20:37:29.450Z,62.12
2024-04-19T20:39:57.167Z,62.08
2024-04-19T20:42:24.856Z,62.04
2024-04-19T20:44:52.447Z,62.17
2024-04-19T20:47:20.115Z,62.06
2024-04-19T20:49:47.757Z,61.89
2024-04-19T20:52:15.439Z,61.91
2024-04-19T20:54:43.119Z,61.86
2024-04-19T20:57:10.926Z,61.83
2024-04-19T20:59:38.543Z,61.75
2024-04-19T21:02:06.640Z,61.87
2024-04-19T21:04:36.106Z,61.85
2024-04-19T21:07:03.777Z,61.82
2024-04-19T21:09:31.485Z,61.97
2024-04-19T21:11:59.344Z,62.09
2024-04-19T21:14:27.008Z,61.77
2024-04-19T21:16:54.662Z,61.69
2024-04-19T21:19:22.456Z,61.73
2024-04-19T21:21:50.205Z,61.74
2024-04-19T21:24:17.959Z,61.77
2024-04-19T21:26:45.544Z,61.75
2024-04-19T21:29:13.401Z,61.90
2024-04-19T21:31:40.998Z,61.88
2024-04-19T21:34:09.705Z,62.00
2024-04-19T21:36:40.601Z,61.93
2024-04-19T21:39:08.545Z,62.02
2024-04-19T21:41:36.169Z,62.06
2024-04-19T21:44:03.827Z,62.18
2024-04-19T21:46:31.985Z,62.13
2024-04-19T21:48:59.694Z,62.36
2024-04-19T21:51:27.366Z,62.45
2024-04-19T21:53:55.022Z,62.41
2024-04-19T21:56:23.107Z,62.25
2024-04-19T21:58:51.036Z,62.33
2024-04-19T22:01:18.736Z,62.30
2024-04-19T22:03:46.481Z,62.44
2024-04-19T22:06:14.754Z,62.49
2024-04-19T22:08:42.499Z,62.60
2024-04-19T22:11:10.308Z,62.63
2024-04-19T22:13:38.369Z,62.62
2024-04-19T22:16:06.960Z,62.68
2024-04-19T22:18:36.374Z,62.55
2024-04-19T22:21:08.711Z,62.59
2024-04-19T22:23:36.301Z,62.60
2024-04-19T22:26:07.613Z,62.36
2024-04-19T22:28:36.512Z,62.40
2024-04-19T22:31:07.531Z,62.51
2024-04-19T22:33:35.703Z,62.22
2024-04-19T22:36:09.304Z,62.23
2024-04-19T22:38:38.127Z,62.19
2024-04-19T22:41:06.074Z,62.09
2024-04-19T22:43:47.904Z,61.93
2024-04-19T22:46:15.597Z,62.08
2024-04-19T22:48:43.200Z,62.15
2024-04-19T22:51:10.982Z,62.18
2024-04-19T22:53:38.595Z,62.15
2024-04-19T22:56:06.461Z,61.89
2024-04-19T22:58:34.123Z,61.99
2024-04-19T23:01:07.480Z,61.90
2024-04-19T23:03:35.387Z,61.91
2024-04-19T23:06:10.528Z,62.06
2024-04-19T23:08:38.207Z,62.18
2024-04-19T23:11:06.019Z,62.39
2024-04-19T23:14:02.198Z,62.50
2024-04-19T23:16:29.815Z,62.74
2024-04-19T23:18:58.330Z,62.79
2024-04-19T23:21:26.029Z,62.82
2024-04-19T23:23:53.736Z,62.69
2024-04-19T23:26:21.432Z,62.69
2024-04-19T23:28:49.117Z,62.56
2024-04-19T23:31:18.657Z,62.59
2024-04-19T23:33:46.434Z,62.42
2024-04-19T23:36:14.054Z,62.48
2024-04-19T23:38:41.687Z,62.68
2024-04-19T23:41:09.948Z,62.66
2024-04-19T23:43:37.539Z,62.67
2024-04-19T23:46:05.252Z,62.53
2024-04-19T23:48:33.041Z,62.39
2024-04-19T23:51:00.601Z,62.43
2024-04-19T23:53:28.228Z,62.44
2024-04-19T23:55:55.833Z,62.38
2024-04-19T23:58:23.424Z,62.57
